Impacts METAR Board
IDs:

KMIA - Miami Intl, FL, US

Updated at: 2100 UTC 02 Oct 2022
Potential Impact None Slight Moderate High
Time 02/09Z 02/10Z 02/11Z 02/12Z 02/13Z 02/14Z 02/15Z 02/16Z 02/17Z 02/18Z 02/19Z 02/20Z 02/21Z
Temp78 77 75 76 77 78 81 84 86 86 87 87 86
Dewpt72 72 73 73 72 72 70 67 66 64 64 66 66
Altim29.84 29.85 29.87 29.89 29.91 29.93 29.94 29.93 29.92 29.90 29.89 29.88 29.87
VIS10 10 7 10 10 10 10 10 10 10 10 10 10
CIG55 55 42 36 48 49 50 70 60 60 65 65 70
CoverOVCOVCOVCOVCOVCOVCBKNBKNBKNBKNBKNBKNBKN
FltCatVFRVFRVFRVFRVFRVFRVFRVFRVFRVFRVFRVFRVFR
WX-----RA--------------------
WDir3503203103003203103301036035033031010
WSpd3 4 7 4 7 5 6 8 8 8 7 9 8
WGst-- -- -- -- -- -- -- 15 -- -- -- -- --
Raw hourly METARs
KMIA 020853Z 35003KT 10SM FEW021 SCT047 OVC055 26/22 A2984 RMK AO2 SLP105 T02560222 56008 $
KMIA 020953Z 32004KT 10SM FEW020 BKN055 OVC070 25/22 A2985 RMK AO2 SLP109 T02500222 $
KMIA 021053Z 31007KT 7SM -RA FEW016 BKN042 OVC070 24/23 A2987 RMK AO2 RAB25 SLP114 P0002 T02390228 $
KMIA 021153Z 30004KT 10SM FEW015 BKN036 OVC055 24/23 A2989 RMK AO2 RAE03 SLP120 P0000 60002 70002 T02440228 10256 20239 53016 $
KMIA 021253Z 32007KT 10SM FEW020 OVC048 25/22 A2991 RMK AO2 SLP129 T02500222 $
KMIA 021353Z 31005KT 10SM FEW025 OVC049 26/22 A2993 RMK AO2 SLP135 T02560222 $
KMIA 021453Z 33006KT 10SM FEW025 BKN050 BKN070 27/21 A2994 RMK AO2 SLP137 T02720211 51017 $
KMIA 021553Z 01008G15KT 330V040 10SM FEW030 SCT055 BKN070 BKN200 29/19 A2993 RMK AO2 SLP135 T02890194 $
KMIA 021653Z 36008KT 330V050 10SM SCT037 BKN060 BKN200 30/19 A2992 RMK AO2 SLP133 T03000189 $
KMIA 021753Z 35008KT 10SM FEW037 BKN060 BKN200 BKN250 30/18 A2990 RMK AO2 SLP126 T03000178 10306 20244 58011 $
KMIA 021853Z 33007KT 290V360 10SM FEW035 BKN065 31/18 A2989 RMK AO2 SLP120 T03060178 $
KMIA 021953Z 31009KT 10SM SCT047 BKN065 BKN250 31/19 A2988 RMK AO2 SLP118 T03060189 $
KMIA 022053Z 01008KT 340V040 10SM SCT047 BKN070 30/19 A2987 RMK AO2 SLP117 T03000189 56010 $



Page loaded:  21:38 UTC  |   02:38 PM Pacific  |   03:38 PM Mountain  |   04:38 PM Central  |   05:38 PM Eastern

 

ADVISORIES

FORECASTS

FORECASTS

OBSERVATIONS

USER TOOLS

ABOUT US